Pagrindinis puslapis
METAR-TAF:

METAR-TAF

Oro uostai :

Vijayawada, Indija

platuma: 16-31-44N, ilguma: 80-47-45E, Aukštis: 25 m

Dabartinis oras

Ataskaita buvo paskelbta 31 minutes, ne 06:00 UTC
Vėjas 4 kt iš Rytų
Temperatūra 32°C
Drėgmė 67%
Slėgis 1011 hPa
Matomumas: 5000 m
Išsisklaidę debesys ne aukštis 2000 ft
migla

METAR: VOBZ 260600Z 10004KT 5000 HZ SCT020 32/25 Q1011 NOSIG

Laikas: 12:01 (06:31 UTC)

Prognozė

Ataskaita buvo paskelbta 1 valandą ir 31 minutes, ne 05:00 UTC
Prognozė galioja nuo 26 metu 06 UTC su 26 metu 15 UTC
Vėjas 5 kt iš Šiaurės Rytų
Matomumas: 5000 m
Mažai debesys ne aukštis 2000 ft
Išsisklaidę debesys ne aukštis 10000 ft
migla
Laikinai
nuo 26 metu 09 UTC su 26 metu 12 UTC
Vėjas 7 kt iš Šiaurės/Šiaurės Rytų
Matomumas: 6000 m
Išsisklaidę debesys ne aukštis 1500 ft
Išsisklaidę debesys ne aukštis 10000 ft

TAF: VOBZ 260500Z 2606/2615 05005KT 5000 HZ FEW020 SCT100 TEMPO 2609/2612 03007KT 6000 SCT015 SCT100

Orai ataskaitas ir orų prognozės (METAR, TAF).

turimą stotys yra geltonos ir raudonos taškus žemėlapyje.

Perkelti pele per norėdami pamatyti stoties vardą.

Tada spustelėkite, norėdami matyti oro stebėjimo ir prognozės.

Norėdami pakeisti žemėlapį: spustelėkite ant žalios mygtukų su juodo kryžiaus žemyn,; žalią mygtuką su brūkšneliu, jei norite nutolinti; arba žalių rodyklių gretimoms žemėlapius.


METAR-TAF: